Time;durP1;ratioP1;P1;durP2;ratioP2;P2;SDS_P1;SDS_P2;PMS_P1;PMS_P2;Temp;Humidity;BMP_temperature;BMP_pressure;BME280_temperature;BME280_humidity;BME280_pressure;Samples;Min_cycle;Max_cycle;Signal;HPM_P1;HPM_P2
2022/01/19 00:01:34;;;;;;;;;22.00;18.50;;;;;5.77;70.82;102270.97;5036280;28;45447;-77
2022/01/19 00:03:59;;;;;;;;;13.50;13.50;;;;;5.75;70.82;102259.53;5035638;28;45308;-76
2022/01/19 00:06:25;;;;;;;;;22.00;20.75;;;;;5.77;70.09;102265.72;5036718;28;45304;-76
2022/01/19 00:08:52;;;;;;;;;22.50;22.50;;;;;5.76;70.91;102276.16;5036498;28;45411;-76
2022/01/19 00:11:18;;;;;;;;;22.75;19.75;;;;;5.76;69.92;102281.41;5038355;28;45624;-75
2022/01/19 00:13:44;;;;;;;;;18.50;17.25;;;;;5.73;70.48;102276.97;5036381;28;45503;-77
2022/01/19 00:16:09;;;;;;;;;24.25;22.00;;;;;5.68;70.62;102268.09;5035931;28;45983;-76
2022/01/19 00:18:35;;;;;;;;;19.00;19.00;;;;;5.62;70.91;102244.31;5036223;28;45394;-76
2022/01/19 00:21:00;;;;;;;;;20.75;17.00;;;;;5.73;70.26;102252.47;5037735;28;45474;-75
2022/01/19 00:23:26;;;;;;;;;25.75;19.00;;;;;5.75;70.34;102233.28;5047077;28;45441;-75
2022/01/19 00:25:53;;;;;;;;;27.75;17.25;;;;;5.68;70.17;102202.50;5056258;28;45422;-77
2022/01/19 00:28:19;;;;;;;;;17.75;17.75;;;;;5.73;69.90;102221.00;5055402;28;45269;-75
2022/01/19 00:30:45;;;;;;;;;22.25;19.50;;;;;5.70;70.20;102212.16;5038456;28;45508;-76
2022/01/19 00:33:10;;;;;;;;;21.50;21.25;;;;;5.75;69.55;102199.16;5034454;28;45509;-76
2022/01/19 00:35:36;;;;;;;;;18.00;12.75;;;;;5.72;69.40;102185.09;5036278;28;45867;-75
2022/01/19 00:38:03;;;;;;;;;20.25;19.25;;;;;5.64;69.17;102179.66;5016922;28;45589;-74
2022/01/19 00:40:28;;;;;;;;;17.75;16.00;;;;;5.67;69.92;102198.97;5035543;28;45546;-74
2022/01/19 00:42:54;;;;;;;;;19.25;17.00;;;;;5.68;69.81;102205.13;5018036;28;45559;-76
2022/01/19 00:45:21;;;;;;;;;19.50;16.50;;;;;5.67;69.32;102219.09;5035295;28;45439;-76
2022/01/19 00:47:46;;;;;;;;;25.25;19.00;;;;;5.64;69.75;102219.88;5017886;28;45441;-74
2022/01/19 00:50:17;;;;;;;;;19.50;16.00;;;;;5.63;69.76;102222.47;5034439;28;46102;-75
2022/01/19 00:52:42;;;;;;;;;19.25;14.00;;;;;5.67;69.76;102211.22;5034886;28;45515;-75
2022/01/19 00:55:11;;;;;;;;;19.00;19.00;;;;;5.65;69.82;102220.78;5035757;28;45952;-75
2022/01/19 00:57:37;;;;;;;;;18.00;15.50;;;;;5.66;69.38;102233.03;5034425;28;45677;-75
2022/01/19 01:00:09;;;;;;;;;16.50;16.50;;;;;5.66;69.95;102219.91;5035078;28;45484;-76
2022/01/19 01:02:34;;;;;;;;;13.50;13.50;;;;;5.70;69.25;102213.91;5035709;28;45516;-76
2022/01/19 01:05:00;;;;;;;;;12.00;12.00;;;;;5.67;69.17;102208.59;5035521;28;45511;-75
2022/01/19 01:07:27;;;;;;;;;21.25;17.00;;;;;5.66;69.49;102201.56;5000083;28;45582;-75
2022/01/19 01:09:52;;;;;;;;;19.75;16.50;;;;;5.65;69.72;102202.44;5035046;28;46189;-75
2022/01/19 01:12:27;;;;;;;;;21.00;18.75;;;;;5.68;69.55;102194.63;5034752;28;45321;-74
2022/01/19 01:20:21;;;;;;;;;18.25;17.75;;;;;5.69;69.35;102172.78;5033842;28;45411;-75
2022/01/19 01:22:47;;;;;;;;;22.25;18.00;;;;;5.66;69.52;102160.47;5034671;28;45407;-74
2022/01/19 01:25:12;;;;;;;;;22.25;17.50;;;;;5.68;69.10;102160.53;5035199;28;45425;-74
2022/01/19 01:27:38;;;;;;;;;25.00;17.25;;;;;5.67;69.31;102166.59;5034486;28;45317;-75
2022/01/19 01:30:05;;;;;;;;;22.75;21.00;;;;;5.65;68.72;102163.06;5036438;28;45512;-74
2022/01/19 01:32:31;;;;;;;;;19.50;19.50;;;;;5.63;68.44;102180.50;5034968;28;45421;-75
2022/01/19 01:34:57;;;;;;;;;22.00;15.75;;;;;5.63;69.51;102180.50;5034848;28;45555;-74
2022/01/19 01:37:22;;;;;;;;;23.50;23.50;;;;;5.62;69.27;102170.88;5034314;28;45494;-75
2022/01/19 01:39:48;;;;;;;;;23.25;20.00;;;;;5.64;69.44;102180.53;5034824;28;45464;-74
2022/01/19 01:42:17;;;;;;;;;19.25;19.25;;;;;5.66;68.94;102183.19;5034544;28;45478;-74
2022/01/19 01:44:46;;;;;;;;;26.50;20.75;;;;;5.66;69.03;102175.31;5036455;28;45400;-76
2022/01/19 01:47:13;;;;;;;;;19.75;17.00;;;;;5.68;69.22;102177.16;5035456;28;45574;-75
2022/01/19 01:55:04;;;;;;;;;20.00;19.25;;;;;5.65;68.68;102158.69;5034901;28;45388;-75
2022/01/19 01:57:30;;;;;;;;;26.75;21.00;;;;;5.69;68.73;102165.81;5034061;28;45304;-75
2022/01/19 01:59:55;;;;;;;;;19.50;17.50;;;;;5.67;69.00;102150.88;5034450;28;46799;-75
2022/01/19 02:02:20;;;;;;;;;21.50;19.75;;;;;5.70;68.87;102156.19;5034512;28;45371;-76
2022/01/19 02:04:46;;;;;;;;;24.75;19.25;;;;;5.67;69.05;102146.50;5034842;28;45656;-73
2022/01/19 02:09:52;;;;;;;;;22.00;17.75;;;;;5.63;68.82;102138.50;5033201;28;46007;-75
2022/01/19 02:23:24;;;;;;;;;20.25;13.50;;;;;5.69;68.98;102122.94;5034189;28;45491;-76
2022/01/19 02:25:52;;;;;;;;;21.50;19.00;;;;;5.68;69.08;102105.44;5034286;28;45411;-75
2022/01/19 02:41:51;;;;;;;;;21.00;18.75;;;;;5.67;69.26;102078.28;5033487;28;45765;-76
2022/01/19 02:44:33;;;;;;;;;20.50;20.25;;;;;5.61;69.14;102066.78;5033177;28;45499;-75
2022/01/19 02:49:48;;;;;;;;;23.75;19.75;;;;;5.60;68.65;102060.66;5032921;28;45313;-75
2022/01/19 02:52:14;;;;;;;;;24.75;19.50;;;;;5.59;68.55;102058.00;5033301;28;46306;-76
2022/01/19 02:54:40;;;;;;;;;24.50;24.25;;;;;5.58;68.70;102056.19;5034261;28;45285;-75
2022/01/19 02:57:09;;;;;;;;;27.50;23.25;;;;;5.56;68.52;102055.25;5032996;28;45479;-76
2022/01/19 03:10:19;;;;;;;;;21.25;19.75;;;;;5.49;68.71;102049.00;5033790;28;45266;-76
2022/01/19 03:12:44;;;;;;;;;23.75;22.75;;;;;5.48;68.35;102050.75;5038919;28;45450;-75
2022/01/19 03:15:11;;;;;;;;;23.50;20.75;;;;;5.47;68.67;102046.34;5037941;28;45436;-77
2022/01/19 03:17:37;;;;;;;;;20.50;18.75;;;;;5.48;68.96;102044.59;5033685;28;45350;-75
2022/01/19 03:20:04;;;;;;;;;24.25;21.25;;;;;5.45;68.96;102040.19;5034522;28;45412;-76
2022/01/19 03:22:37;;;;;;;;;21.75;20.75;;;;;5.41;68.68;102024.31;5024608;28;46136;-75
2022/01/19 03:25:06;;;;;;;;;24.00;19.00;;;;;5.45;68.81;102040.19;5027113;28;45359;-76
2022/01/19 03:27:31;;;;;;;;;25.00;19.50;;;;;5.44;68.81;102035.78;5018869;28;45487;-75
2022/01/19 03:29:57;;;;;;;;;23.50;22.50;;;;;5.45;69.06;102027.06;5036415;28;45477;-76
2022/01/19 03:32:24;;;;;;;;;22.50;22.00;;;;;5.41;68.79;102019.97;5035548;28;46753;-74
2022/01/19 03:34:49;;;;;;;;;19.00;18.00;;;;;5.43;68.87;102026.13;5038824;28;45509;-75
2022/01/19 03:37:15;;;;;;;;;22.75;20.75;;;;;5.40;68.04;102025.16;5057069;28;45423;-75
2022/01/19 03:39:40;;;;;;;;;22.75;21.50;;;;;5.32;68.60;102019.75;5048473;28;45923;-75
2022/01/19 03:42:06;;;;;;;;;19.00;18.25;;;;;5.32;68.52;102024.97;5036415;28;46192;-75
2022/01/19 03:44:32;;;;;;;;;25.50;20.25;;;;;5.37;68.88;102023.34;5036956;28;45343;-75
2022/01/19 03:47:00;;;;;;;;;18.50;13.50;;;;;5.38;68.87;102027.75;5035981;28;45441;-75
2022/01/19 03:49:27;;;;;;;;;19.00;19.00;;;;;5.37;68.91;102025.97;5018844;28;45444;-75
2022/01/19 03:51:58;;;;;;;;;25.00;22.00;;;;;5.35;68.66;102022.44;5036638;28;46189;-74
2022/01/19 03:54:27;;;;;;;;;17.50;15.75;;;;;5.39;68.96;102018.13;5036180;28;45486;-74
2022/01/19 03:56:53;;;;;;;;;27.50;20.50;;;;;5.37;69.16;102015.47;5036381;28;45521;-75
2022/01/19 03:59:21;;;;;;;;;26.25;19.00;;;;;5.38;69.24;102008.53;5035483;28;45447;-76
2022/01/19 04:01:47;;;;;;;;;27.25;24.25;;;;;5.34;68.80;102002.28;5035027;28;45546;-76
2022/01/19 04:06:55;;;;;;;;;28.00;25.50;;;;;5.36;69.32;102008.47;5036678;28;45308;-75
2022/01/19 04:09:21;;;;;;;;;24.25;22.00;;;;;5.31;68.33;101997.88;5018006;28;45555;-75
2022/01/19 04:11:46;;;;;;;;;21.00;18.50;;;;;5.32;68.83;101993.53;5052796;28;46315;-75
2022/01/19 04:14:27;;;;;;;;;23.00;20.00;;;;;5.27;69.31;101988.16;5032787;28;45481;-76
2022/01/19 04:17:05;;;;;;;;;24.50;23.25;;;;;5.28;69.47;101989.03;5035761;28;45383;-76
2022/01/19 04:19:34;;;;;;;;;22.25;19.25;;;;;5.25;69.54;101996.84;5036067;28;45460;-76
2022/01/19 04:22:03;;;;;;;;;22.50;20.50;;;;;5.19;69.78;101989.69;5036535;28;46206;-75
2022/01/19 04:24:30;;;;;;;;;26.25;22.00;;;;;5.23;69.72;102001.16;5038442;28;45358;-75
2022/01/19 04:29:45;;;;;;;;;25.00;21.50;;;;;5.29;70.47;102001.31;5044857;28;45349;-75
2022/01/19 04:32:18;;;;;;;;;33.75;29.50;;;;;5.28;69.60;101999.53;5035466;28;46011;-75
2022/01/19 04:34:48;;;;;;;;;26.00;24.50;;;;;5.28;69.63;101994.28;5017615;28;45392;-75
2022/01/19 05:04:22;;;;;;;;;32.25;28.00;;;;;5.43;69.79;102001.63;4993140;28;45510;-75
2022/01/19 05:06:53;;;;;;;;;24.00;22.50;;;;;5.45;69.71;102002.53;4993317;28;45464;-75
2022/01/19 05:14:34;;;;;;;;;25.75;24.75;;;;;5.43;69.84;101986.78;4992680;28;45449;-76
2022/01/19 05:16:59;;;;;;;;;25.50;22.25;;;;;5.37;69.96;101973.53;4992805;28;52057;-74
2022/01/19 05:19:24;;;;;;;;;24.50;21.75;;;;;5.46;69.91;101988.59;4992165;28;45491;-75
2022/01/19 05:21:50;;;;;;;;;30.50;26.00;;;;;5.48;69.88;101981.63;4992765;28;45356;-75
2022/01/19 05:24:15;;;;;;;;;24.25;21.25;;;;;5.48;70.47;101977.31;4993153;28;45491;-75
2022/01/19 05:26:41;;;;;;;;;28.00;26.00;;;;;5.52;69.85;101978.25;4993218;28;45450;-75
2022/01/19 05:29:07;;;;;;;;;28.50;24.50;;;;;5.52;70.04;101976.50;4990750;28;45572;-74
2022/01/19 05:31:32;;;;;;;;;32.50;26.00;;;;;5.55;69.64;101985.31;4992641;28;45376;-76
2022/01/19 05:33:58;;;;;;;;;32.25;25.25;;;;;5.55;69.23;101986.19;5032515;28;45501;-76
2022/01/19 05:36:23;;;;;;;;;28.50;23.75;;;;;5.55;69.99;101982.69;5034695;28;45579;-76
2022/01/19 05:38:48;;;;;;;;;30.25;25.75;;;;;5.49;70.21;101976.44;5034338;28;45376;-75
2022/01/19 05:41:14;;;;;;;;;32.50;28.75;;;;;5.56;69.38;101984.44;5017120;28;45612;-77
2022/01/19 05:43:39;;;;;;;;;25.00;21.50;;;;;5.58;69.55;101988.88;5033549;28;46072;-75
2022/01/19 05:46:05;;;;;;;;;25.00;22.50;;;;;5.59;69.92;101981.91;5033806;28;45446;-75
2022/01/19 05:48:32;;;;;;;;;24.50;21.50;;;;;5.61;69.40;101977.56;5050479;28;45501;-76
2022/01/19 05:50:57;;;;;;;;;30.00;25.75;;;;;5.60;69.46;101975.78;5016187;28;45376;-75
2022/01/19 05:53:22;;;;;;;;;35.75;29.00;;;;;5.59;69.79;101974.03;5035147;28;45440;-73
2022/01/19 05:55:48;;;;;;;;;29.25;27.75;;;;;5.59;69.80;101974.03;5051338;28;45391;-77
2022/01/19 05:58:14;;;;;;;;;31.50;28.00;;;;;5.65;69.83;101984.69;5033856;28;45549;-77
2022/01/19 06:00:39;;;;;;;;;28.00;27.75;;;;;5.64;70.13;101975.91;5034510;28;45312;-75
2022/01/19 06:03:05;;;;;;;;;27.25;26.25;;;;;5.66;69.86;101986.44;5034640;28;46056;-76
2022/01/19 06:05:31;;;;;;;;;34.50;31.00;;;;;5.66;70.25;101983.81;5033779;28;45514;-76
2022/01/19 06:08:12;;;;;;;;;38.00;32.00;;;;;5.64;69.84;101973.28;5034705;28;45542;-74
2022/01/19 06:10:43;;;;;;;;;31.25;30.75;;;;;5.67;70.00;101977.72;5034219;28;45418;-77
2022/01/19 06:13:11;;;;;;;;;29.50;27.50;;;;;5.67;70.28;101983.84;5033388;28;46315;-76
2022/01/19 06:15:36;;;;;;;;;32.50;26.50;;;;;5.67;70.60;101985.59;5034516;28;45376;-76
2022/01/19 06:18:03;;;;;;;;;37.00;29.00;;;;;5.69;70.13;101982.16;5016575;28;45524;-76
2022/01/19 06:20:30;;;;;;;;;27.50;26.25;;;;;5.70;69.96;101978.66;5035034;28;45443;-75
2022/01/19 06:22:55;;;;;;;;;26.75;22.50;;;;;5.70;70.42;101975.16;5045964;28;46053;-76
2022/01/19 06:25:22;;;;;;;;;32.75;26.00;;;;;5.69;70.77;101974.28;5034085;28;45416;-75
2022/01/19 06:27:47;;;;;;;;;30.00;27.25;;;;;5.74;70.59;101978.72;5034045;28;45427;-76
2022/01/19 06:30:13;;;;;;;;;34.25;30.00;;;;;5.73;70.94;101969.97;5033785;28;45547;-76
2022/01/19 06:32:39;;;;;;;;;35.75;33.75;;;;;5.71;70.74;101976.94;5034363;28;45415;-76
2022/01/19 06:35:06;;;;;;;;;39.50;30.00;;;;;5.70;70.49;101972.53;5034279;28;45344;-76
2022/01/19 06:37:31;;;;;;;;;34.00;30.00;;;;;5.74;70.75;101969.13;5034311;28;45422;-75
2022/01/19 06:39:57;;;;;;;;;41.25;32.75;;;;;5.72;70.61;101964.69;5033451;28;45379;-76
2022/01/19 06:42:22;;;;;;;;;32.75;29.75;;;;;5.72;70.12;101968.19;5033047;28;45434;-74
2022/01/19 06:44:49;;;;;;;;;40.00;33.00;;;;;5.70;70.77;101965.53;5034083;28;45463;-75
2022/01/19 06:47:14;;;;;;;;;34.25;28.25;;;;;5.72;70.60;101968.19;5034296;28;45316;-76
2022/01/19 06:49:40;;;;;;;;;38.75;36.75;;;;;5.63;70.99;101945.28;5033689;28;45399;-75
2022/01/19 06:52:06;;;;;;;;;24.50;20.75;;;;;5.71;71.32;101961.19;5033591;28;46135;-76
2022/01/19 06:54:31;;;;;;;;;29.75;24.50;;;;;5.72;71.28;101964.69;5033405;28;45467;-76
2022/01/19 06:56:56;;;;;;;;;38.00;34.25;;;;;5.70;70.94;101969.91;5036229;28;45470;-76
2022/01/19 06:59:22;;;;;;;;;31.25;29.25;;;;;5.67;71.60;101968.09;5037494;28;45312;-77
2022/01/19 07:01:47;;;;;;;;;32.00;27.75;;;;;5.68;71.99;101974.25;5035998;28;45821;-75
2022/01/19 07:04:15;;;;;;;;;36.25;32.75;;;;;5.64;71.38;101961.91;5037167;28;45365;-77
2022/01/19 07:06:41;;;;;;;;;33.00;28.75;;;;;5.66;71.44;101961.09;5037125;28;45434;-76
2022/01/19 07:09:06;;;;;;;;;30.75;29.00;;;;;5.66;71.91;101968.06;5036729;28;45481;-77
2022/01/19 07:11:32;;;;;;;;;33.25;29.50;;;;;5.63;72.43;101961.03;5036893;28;46319;-75
2022/01/19 07:13:57;;;;;;;;;26.00;22.25;;;;;5.61;72.13;101962.72;5018995;28;45497;-77
2022/01/19 07:16:23;;;;;;;;;39.50;30.50;;;;;5.55;72.76;101956.47;5036347;28;45535;-76
2022/01/19 07:18:49;;;;;;;;;43.00;33.25;;;;;5.61;73.07;101959.22;5037404;28;45413;-75
2022/01/19 07:21:16;;;;;;;;;46.75;33.75;;;;;5.60;73.10;101960.06;5016400;28;45535;-76
2022/01/19 07:23:41;;;;;;;;;38.00;31.50;;;;;5.61;73.17;101962.72;5036544;28;45356;-79
2022/01/19 07:26:07;;;;;;;;;43.50;33.50;;;;;5.63;73.68;101966.28;5038043;28;45293;-76
2022/01/19 07:28:33;;;;;;;;;39.50;32.00;;;;;5.65;73.59;101963.69;5036304;28;45392;-76
2022/01/19 07:30:58;;;;;;;;;44.75;38.00;;;;;5.66;73.85;101965.44;5037257;28;46218;-75
2022/01/19 07:33:25;;;;;;;;;40.25;37.25;;;;;5.65;73.80;101974.19;5037283;28;45467;-77
2022/01/19 07:35:51;;;;;;;;;43.00;38.00;;;;;5.56;74.06;101958.22;5038164;28;45478;-76
2022/01/19 07:38:18;;;;;;;;;45.50;36.00;;;;;5.67;74.43;101982.97;5037257;28;45453;-74
2022/01/19 07:40:43;;;;;;;;;43.75;36.00;;;;;5.68;73.83;101976.88;5035839;28;45687;-78
2022/01/19 07:43:09;;;;;;;;;41.00;33.25;;;;;5.50;74.58;101954.59;5036022;28;45372;-77
2022/01/19 07:45:34;;;;;;;;;49.50;40.00;;;;;5.68;74.66;101974.25;5038734;28;45473;-77
2022/01/19 07:48:00;;;;;;;;;46.00;41.50;;;;;5.70;74.05;101972.53;5032085;28;45705;-78
2022/01/19 07:50:25;;;;;;;;;49.50;39.75;;;;;5.70;74.02;101975.16;5022018;28;46227;-76
2022/01/19 07:52:51;;;;;;;;;45.25;37.25;;;;;5.65;74.59;101974.19;5036029;28;45745;-77
2022/01/19 07:55:17;;;;;;;;;49.00;39.00;;;;;5.70;74.38;101983.03;5036753;28;45324;-76
2022/01/19 07:57:47;;;;;;;;;39.50;36.50;;;;;5.68;74.51;101990.00;5035309;28;45656;-76
2022/01/19 08:00:14;;;;;;;;;43.25;37.75;;;;;5.70;74.61;101983.03;5037815;28;45510;-77
2022/01/19 08:02:40;;;;;;;;;33.50;31.25;;;;;5.68;74.37;101984.75;5056930;28;45332;-78
2022/01/19 08:05:07;;;;;;;;;44.00;37.00;;;;;5.69;75.20;101979.53;5057639;28;45527;-77
2022/01/19 08:07:33;;;;;;;;;35.25;33.25;;;;;5.69;74.80;101984.78;5054579;28;45553;-81
2022/01/19 08:10:05;;;;;;;;;30.50;24.25;;;;;5.69;74.28;101989.13;5056932;28;45967;-81
2022/01/19 08:12:31;;;;;;;;;22.25;14.00;;;;;5.68;74.48;101987.38;5039356;28;45400;-82
2022/01/19 08:14:58;;;;;;;;;44.50;37.00;;;;;5.67;75.15;101988.22;5036340;28;45412;-81
2022/01/19 08:17:26;;;;;;;;;32.25;26.50;;;;;5.68;74.37;101985.63;5039278;28;45519;-76
2022/01/19 08:19:52;;;;;;;;;42.25;33.50;;;;;5.69;74.56;101986.50;5035156;28;47381;-76
2022/01/19 08:22:18;;;;;;;;;34.75;28.25;;;;;5.67;74.66;101972.47;5035606;28;45521;-77
2022/01/19 08:24:44;;;;;;;;;38.00;34.25;;;;;5.66;74.49;101976.84;5036165;28;45382;-77
2022/01/19 08:27:09;;;;;;;;;36.50;32.00;;;;;5.70;74.65;101988.28;5034640;28;45475;-77
2022/01/19 08:29:35;;;;;;;;;35.50;29.00;;;;;5.70;74.93;101989.16;5017825;28;45550;-76
2022/01/19 08:32:00;;;;;;;;;34.75;28.25;;;;;5.72;75.36;101996.19;5037770;28;45423;-77
2022/01/19 08:34:25;;;;;;;;;22.00;20.50;;;;;5.72;75.09;102002.31;5032243;28;45386;-75
2022/01/19 08:36:51;;;;;;;;;43.75;32.25;;;;;5.74;74.90;102005.88;5043474;28;45415;-76
2022/01/19 08:39:18;;;;;;;;;29.00;27.00;;;;;5.75;74.67;102010.25;5037310;28;45461;-75
2022/01/19 08:41:43;;;;;;;;;32.50;26.00;;;;;5.73;74.98;102004.09;5036687;28;45507;-75
2022/01/19 08:44:10;;;;;;;;;38.00;29.00;;;;;5.77;75.15;102016.44;5038319;28;45459;-75
2022/01/19 08:46:38;;;;;;;;;38.25;28.00;;;;;5.78;74.58;102012.94;5044961;28;45503;-75
2022/01/19 08:49:03;;;;;;;;;44.50;33.50;;;;;5.83;74.74;102015.66;5038059;28;46008;-76
2022/01/19 08:51:29;;;;;;;;;29.00;23.75;;;;;5.79;74.33;102012.09;5055465;28;45502;-76
2022/01/19 08:53:54;;;;;;;;;39.50;33.75;;;;;5.83;74.63;102019.19;5037139;28;45426;-76
2022/01/19 08:56:20;;;;;;;;;34.25;27.00;;;;;5.86;74.99;102027.13;5025816;28;45694;-75
2022/01/19 08:58:45;;;;;;;;;42.00;31.50;;;;;5.85;74.58;102016.59;5042095;28;46176;-76
2022/01/19 09:01:10;;;;;;;;;33.50;29.25;;;;;5.87;74.70;102025.38;5053336;28;45336;-77
2022/01/19 09:03:36;;;;;;;;;29.75;24.50;;;;;5.88;74.11;102033.28;5044189;28;45446;-75
2022/01/19 09:06:01;;;;;;;;;34.00;29.50;;;;;5.90;74.30;102029.81;5045260;28;45561;-74
2022/01/19 09:08:29;;;;;;;;;36.00;29.00;;;;;5.92;75.07;102039.50;5038290;28;47640;-75
2022/01/19 09:10:57;;;;;;;;;33.00;29.50;;;;;5.94;74.42;102034.31;5043479;28;45495;-75
2022/01/19 09:13:23;;;;;;;;;44.00;37.25;;;;;5.97;74.30;102037.03;5034005;28;45371;-76
2022/01/19 09:15:48;;;;;;;;;33.75;31.50;;;;;6.00;74.50;102039.72;5037184;28;45562;-77
2022/01/19 09:18:14;;;;;;;;;32.75;31.75;;;;;6.01;74.27;102042.38;5035156;28;46054;-76
2022/01/19 09:20:39;;;;;;;;;40.75;34.00;;;;;6.01;73.77;102030.97;5054124;28;45364;-76
2022/01/19 09:23:04;;;;;;;;;35.50;31.00;;;;;6.08;74.03;102038.13;5042655;28;45458;-76
2022/01/19 09:25:30;;;;;;;;;39.75;37.25;;;;;6.09;74.23;102039.91;5034459;28;45415;-76
2022/01/19 09:27:55;;;;;;;;;31.00;28.75;;;;;6.07;74.17;102030.22;5034823;28;45554;-76
2022/01/19 09:30:24;;;;;;;;;26.50;24.50;;;;;6.13;73.78;102030.34;5044027;28;45430;-75
2022/01/19 09:33:05;;;;;;;;;34.00;24.25;;;;;6.13;74.29;102028.59;5037279;28;45496;-76
2022/01/19 09:35:39;;;;;;;;;35.50;28.25;;;;;6.15;73.62;102040.06;5039718;28;45394;-76
2022/01/19 09:38:04;;;;;;;;;22.50;17.50;;;;;6.16;73.08;102043.56;5051056;28;46145;-75
2022/01/19 09:40:30;;;;;;;;;31.50;27.75;;;;;6.16;73.33;102041.81;5051787;28;45331;-76
2022/01/19 09:42:55;;;;;;;;;35.50;33.25;;;;;6.20;73.30;102040.16;5042285;28;45596;-76
2022/01/19 09:45:20;;;;;;;;;36.50;31.00;;;;;6.21;72.69;102045.44;5033995;28;45582;-76
2022/01/19 09:47:47;;;;;;;;;29.25;26.75;;;;;6.20;73.03;102040.16;5035702;28;46343;-75
2022/01/19 09:50:13;;;;;;;;;39.75;30.50;;;;;6.19;73.29;102036.59;5042244;28;45637;-77
2022/01/19 09:52:39;;;;;;;;;32.75;32.00;;;;;6.22;72.89;102041.97;5045416;28;45541;-77
2022/01/19 09:55:06;;;;;;;;;41.00;31.00;;;;;6.26;72.47;102042.03;5045406;28;46019;-77
2022/01/19 09:57:33;;;;;;;;;19.00;12.50;;;;;6.28;72.32;102037.69;5034748;28;46252;-76
2022/01/19 09:59:59;;;;;;;;;40.25;30.25;;;;;6.30;72.19;102035.97;5016583;28;45508;-76
2022/01/19 10:02:24;;;;;;;;;32.00;28.25;;;;;6.28;72.53;102028.06;5037275;28;45401;-76
2022/01/19 10:04:51;;;;;;;;;32.50;29.25;;;;;6.29;72.63;102034.22;5034670;28;45604;-77
2022/01/19 10:07:23;;;;;;;;;34.75;30.00;;;;;6.33;72.02;102022.88;5034394;28;45419;-77
2022/01/19 10:09:56;;;;;;;;;35.50;28.50;;;;;6.34;72.25;102036.06;5008785;28;45981;-76
2022/01/19 10:18:09;;;;;;;;;42.75;37.25;;;;;6.34;72.21;102040.44;5045387;28;45757;-80
2022/01/19 10:20:36;;;;;;;;;44.25;33.75;;;;;6.40;72.49;102040.56;5037469;28;45478;-81
2022/01/19 10:23:01;;;;;;;;;33.50;29.25;;;;;6.43;72.86;102038.00;5042146;28;45517;-81
2022/01/19 10:25:49;;;;;;;;;43.00;36.50;;;;;6.39;72.70;102031.81;5048286;28;46130;-81
2022/01/19 10:28:15;;;;;;;;;43.00;33.50;;;;;6.34;72.87;102019.41;5039329;28;46170;-82
2022/01/19 10:30:42;;;;;;;;;31.75;23.25;;;;;6.38;72.08;102027.38;5048853;28;45542;-78
2022/01/19 10:33:08;;;;;;;;;38.25;33.75;;;;;6.44;72.89;102038.88;5048953;28;45629;-80
2022/01/19 10:35:36;;;;;;;;;48.00;37.50;;;;;6.44;72.21;102034.53;5050482;28;45590;-80
2022/01/19 10:38:23;;;;;;;;;36.75;30.50;;;;;6.45;72.50;102041.53;5045157;28;45483;-81
2022/01/19 10:40:54;;;;;;;;;48.00;36.25;;;;;6.49;72.78;102040.75;5046081;28;45474;-80
2022/01/19 10:43:38;;;;;;;;;46.25;34.75;;;;;6.48;71.79;102038.97;5038098;28;45398;-80
2022/01/19 10:46:16;;;;;;;;;42.75;34.75;;;;;6.47;72.70;102025.78;5044127;28;45481;-80
2022/01/19 10:48:44;;;;;;;;;39.25;32.50;;;;;6.48;72.47;102028.44;5039266;28;46111;-81
2022/01/19 10:51:11;;;;;;;;;33.75;31.75;;;;;6.51;72.18;102028.53;5047404;28;45414;-80
2022/01/19 10:53:38;;;;;;;;;39.75;33.25;;;;;6.53;71.88;102018.94;5065831;28;45762;-74
2022/01/19 10:56:05;;;;;;;;;52.75;42.75;;;;;6.54;72.58;102010.22;5050093;28;45430;-76
2022/01/19 10:58:32;;;;;;;;;39.50;37.75;;;;;6.57;72.21;102015.53;5023146;28;47058;-76
2022/01/19 11:01:00;;;;;;;;;43.00;36.00;;;;;6.60;72.57;102016.44;5046316;28;45356;-80
2022/01/19 11:03:28;;;;;;;;;62.25;45.75;;;;;6.57;72.63;102010.28;5046464;28;45348;-79
2022/01/19 11:05:56;;;;;;;;;50.75;45.75;;;;;6.60;72.05;102008.53;5053508;28;45375;-77
2022/01/19 11:08:25;;;;;;;;;48.00;38.75;;;;;6.55;72.86;101998.81;5024019;28;46773;-81
2022/01/19 11:10:54;;;;;;;;;59.50;46.75;;;;;6.58;71.79;101998.88;5041781;28;45490;-79
2022/01/19 11:13:39;;;;;;;;;55.50;44.25;;;;;6.62;72.58;102005.09;5046701;28;45482;-80
2022/01/19 11:16:05;;;;;;;;;53.50;46.50;;;;;6.65;72.28;102009.50;5045351;28;45384;-76
2022/01/19 11:18:32;;;;;;;;;61.50;49.50;;;;;6.68;72.55;102009.56;5045646;28;45514;-77
2022/01/19 11:21:04;;;;;;;;;59.00;47.75;;;;;6.65;72.03;102004.25;5039389;28;45489;-77
2022/01/19 11:24:07;;;;;;;;;53.25;45.00;;;;;6.67;71.80;101999.94;5036667;28;45504;-76
2022/01/19 11:26:35;;;;;;;;;49.00;43.00;;;;;6.63;71.88;101990.22;5042786;28;45477;-77
2022/01/19 11:29:19;;;;;;;;;65.25;50.25;;;;;6.63;73.14;101996.34;5037934;28;45540;-78
2022/01/19 11:31:46;;;;;;;;;55.75;46.75;;;;;6.63;72.59;101991.09;5040625;28;45540;-78
2022/01/19 11:34:12;;;;;;;;;60.75;49.00;;;;;6.64;73.01;101989.38;5023390;28;45540;-77
2022/01/19 11:36:42;;;;;;;;;50.50;43.50;;;;;6.66;72.95;101979.75;5050425;28;45513;-76
2022/01/19 11:39:17;;;;;;;;;56.75;43.75;;;;;6.66;72.98;101982.38;5038106;28;45483;-77
2022/01/19 11:41:51;;;;;;;;;57.50;46.25;;;;;6.64;73.20;101989.38;5015768;28;45413;-76
2022/01/19 11:44:37;;;;;;;;;48.75;44.25;;;;;6.57;73.00;101970.84;5036667;28;45541;-77
2022/01/19 11:47:30;;;;;;;;;58.75;45.00;;;;;6.60;73.41;101964.75;5035113;28;45598;-77
2022/01/19 11:50:15;;;;;;;;;59.75;44.25;;;;;6.62;74.78;101972.66;4941393;28;46267;-85
2022/01/19 11:52:42;;;;;;;;;54.50;45.50;;;;;6.65;73.33;101970.09;4927066;28;45612;-76
2022/01/19 11:55:24;;;;;;;;;50.25;44.75;;;;;6.67;73.28;101968.41;4936774;28;45454;-77
2022/01/19 11:58:11;;;;;;;;;56.00;45.00;;;;;6.63;73.99;101953.44;4936793;28;45435;-77
2022/01/19 12:00:37;;;;;;;;;55.25;44.00;;;;;6.70;73.09;101950.06;4938031;28;45530;-76
2022/01/19 12:03:21;;;;;;;;;51.75;45.25;;;;;6.72;72.84;101956.22;4942068;28;45670;-76
2022/01/19 12:05:50;;;;;;;;;58.25;45.25;;;;;6.72;73.38;101958.84;4939265;28;45464;-85
2022/01/19 12:08:35;;;;;;;;;50.50;42.25;;;;;6.75;73.48;101961.53;4936418;28;45482;-77
2022/01/19 12:11:15;;;;;;;;;61.25;46.25;;;;;6.71;73.50;101954.44;4954011;28;46054;-76
2022/01/19 12:13:56;;;;;;;;;43.25;41.50;;;;;6.71;73.18;101951.81;4934119;28;45507;-78
2022/01/19 12:19:14;;;;;;;;;47.75;39.00;;;;;6.76;73.46;101940.53;4943403;28;45553;-77
2022/01/19 12:21:44;;;;;;;;;55.25;41.00;;;;;6.77;72.70;101933.50;4951516;28;46212;-78
2022/01/19 12:24:21;;;;;;;;;50.75;42.50;;;;;6.79;72.14;101937.06;4940971;28;45459;-76
2022/01/19 12:27:23;;;;;;;;;32.00;29.50;;;;;6.77;71.90;101925.63;4993716;28;45604;-76
2022/01/19 12:30:09;;;;;;;;;45.00;33.00;;;;;6.79;72.51;101923.94;4979423;28;45498;-74
2022/01/19 12:32:41;;;;;;;;;42.25;36.75;;;;;6.73;71.70;101915.94;4976483;28;47144;-75
2022/01/19 12:35:11;;;;;;;;;32.50;26.00;;;;;6.83;72.44;101927.50;4985767;28;45638;-76
2022/01/19 12:37:38;;;;;;;;;36.75;27.00;;;;;6.85;72.26;101921.41;4984800;28;45502;-76
2022/01/19 12:40:26;;;;;;;;;39.50;34.25;;;;;6.85;72.46;101924.03;4978119;28;45667;-76
2022/01/19 12:43:07;;;;;;;;;36.50;28.00;;;;;6.88;71.77;101924.09;4969772;28;45547;-79
2022/01/19 12:45:49;;;;;;;;;32.25;29.00;;;;;6.88;72.49;101926.72;4973636;28;45408;-78
2022/01/19 12:48:42;;;;;;;;;34.00;25.00;;;;;6.88;71.56;101918.84;4981709;28;45492;-78
2022/01/19 12:51:33;;;;;;;;;31.75;27.00;;;;;6.94;71.49;101912.81;4974787;28;45619;-78
2022/01/19 12:53:59;;;;;;;;;24.75;22.25;;;;;6.97;71.67;101904.97;4981822;28;45547;-77
2022/01/19 12:56:26;;;;;;;;;35.25;28.00;;;;;7.00;71.19;101905.00;4977135;28;45427;-77
2022/01/19 12:59:00;;;;;;;;;37.00;24.75;;;;;6.93;71.40;101877.72;4981079;28;45572;-77
2022/01/19 13:01:26;;;;;;;;;29.25;26.75;;;;;7.06;71.82;101893.69;4974159;28;45576;-79